TimeCDT,TemperatureF,Dew PointF,Humidity,Sea Level PressureIn,VisibilityMPH,Wind Direction,Wind SpeedMPH,Gust SpeedMPH,PrecipitationIn,Events,Conditions,WindDirDegrees,DateUTC
12:12 AM,68.0,62.1,81,29.83,10.0,NNW,9.2,-,N/A,,Clear,330,2013-07-23 05:12:00
12:33 AM,67.3,61.5,82,29.84,10.0,NNW,13.8,-,N/A,,Clear,340,2013-07-23 05:33:00
12:52 AM,67.1,60.1,78,29.84,10.0,North,12.7,17.3,N/A,,Clear,350,2013-07-23 05:52:00
1:12 AM,66.2,59.2,78,29.85,10.0,North,9.2,-,N/A,,Clear,360,2013-07-23 06:12:00
1:32 AM,65.5,58.1,77,29.85,10.0,North,10.4,-,N/A,,Clear,360,2013-07-23 06:32:00
1:52 AM,64.6,57.2,77,29.86,10.0,North,9.2,-,N/A,,Clear,360,2013-07-23 06:52:00
2:12 AM,63.9,56.8,78,29.86,10.0,North,6.9,-,N/A,,Clear,360,2013-07-23 07:12:00
2:32 AM,63.0,56.7,80,29.85,10.0,North,5.8,-,N/A,,Clear,10,2013-07-23 07:32:00
2:52 AM,62.4,56.3,80,29.87,10.0,North,4.6,-,N/A,,Scattered Clouds,350,2013-07-23 07:52:00
3:13 AM,63.5,55.4,75,29.87,10.0,North,8.1,-,N/A,,Mostly Cloudy,350,2013-07-23 08:13:00
3:32 AM,63.3,56.1,77,29.88,10.0,NNW,5.8,-,N/A,,Mostly Cloudy,330,2013-07-23 08:32:00
3:52 AM,62.1,55.9,80,29.88,10.0,North,6.9,-,N/A,,Mostly Cloudy,350,2013-07-23 08:52:00
4:12 AM,61.2,55.6,82,29.88,10.0,North,5.8,-,N/A,,Scattered Clouds,350,2013-07-23 09:12:00
4:32 AM,60.1,55.4,85,29.88,10.0,North,4.6,-,N/A,,Clear,350,2013-07-23 09:32:00
4:52 AM,60.1,55.0,83,29.89,10.0,NNW,5.8,-,N/A,,Clear,330,2013-07-23 09:52:00
5:12 AM,59.0,55.2,87,29.90,10.0,NNW,6.9,-,N/A,,Clear,330,2013-07-23 10:12:00
5:32 AM,59.2,54.7,85,29.91,10.0,NNW,6.9,-,N/A,,Clear,330,2013-07-23 10:32:00
5:52 AM,58.5,54.5,87,29.92,10.0,NNW,5.8,-,N/A,,Clear,330,2013-07-23 10:52:00
6:13 AM,59.2,54.3,84,29.91,10.0,North,6.9,-,N/A,,Clear,350,2013-07-23 11:13:00
6:32 AM,59.0,54.5,85,29.92,10.0,NNW,6.9,-,N/A,,Clear,330,2013-07-23 11:32:00
6:52 AM,59.9,54.7,83,29.91,10.0,North,5.8,-,N/A,,Clear,360,2013-07-23 11:52:00
7:13 AM,61.0,54.7,80,29.93,10.0,NNW,5.8,-,N/A,,Clear,340,2013-07-23 12:13:00
7:32 AM,61.7,55.2,79,29.94,10.0,NNW,6.9,-,N/A,,Clear,330,2013-07-23 12:32:00
7:53 AM,62.8,55.2,76,29.95,10.0,North,6.9,-,N/A,,Clear,350,2013-07-23 12:53:00
8:13 AM,63.7,55.0,73,29.94,10.0,North,8.1,-,N/A,,Clear,360,2013-07-23 13:13:00
8:32 AM,64.2,54.9,72,29.95,10.0,North,10.4,-,N/A,,Clear,360,2013-07-23 13:32:00
8:53 AM,65.3,54.7,68,29.95,10.0,North,9.2,-,N/A,,Clear,350,2013-07-23 13:53:00
9:12 AM,65.8,54.9,68,29.95,10.0,North,13.8,18.4,N/A,,Clear,350,2013-07-23 14:12:00
9:33 AM,66.7,55.0,66,29.97,10.0,NNW,9.2,-,N/A,,Clear,340,2013-07-23 14:33:00
9:53 AM,67.3,53.4,61,29.96,10.0,North,12.7,-,N/A,,Clear,10,2013-07-23 14:53:00
10:13 AM,67.5,53.8,61,29.96,10.0,North,13.8,19.6,N/A,,Clear,360,2013-07-23 15:13:00
10:32 AM,68.7,54.0,59,29.98,10.0,NNW,13.8,-,N/A,,Clear,340,2013-07-23 15:32:00
10:52 AM,69.1,52.7,56,29.97,10.0,North,12.7,17.3,N/A,,Clear,360,2013-07-23 15:52:00
11:12 AM,70.2,53.4,55,29.98,10.0,North,11.5,-,N/A,,Clear,360,2013-07-23 16:12:00
11:32 AM,70.3,51.8,52,29.99,10.0,North,10.4,19.6,N/A,,Clear,350,2013-07-23 16:32:00
11:53 AM,70.0,50.7,50,29.99,10.0,North,13.8,18.4,N/A,,Clear,360,2013-07-23 16:53:00
12:13 PM,70.9,51.3,50,29.99,10.0,North,16.1,20.7,N/A,,Clear,350,2013-07-23 17:13:00
12:33 PM,71.1,51.4,50,29.99,10.0,North,15.0,26.5,N/A,,Clear,360,2013-07-23 17:33:00
12:52 PM,71.2,52.0,51,29.99,10.0,North,13.8,17.3,N/A,,Clear,10,2013-07-23 17:52:00
1:12 PM,71.8,52.2,50,29.99,10.0,North,15.0,21.9,N/A,,Clear,10,2013-07-23 18:12:00
1:32 PM,71.8,50.9,48,29.99,10.0,North,15.0,20.7,N/A,,Clear,350,2013-07-23 18:32:00
1:52 PM,72.5,51.6,48,29.99,10.0,NNE,11.5,19.6,N/A,,Clear,20,2013-07-23 18:52:00
2:12 PM,72.0,51.8,49,29.98,10.0,North,8.1,17.3,N/A,,Clear,10,2013-07-23 19:12:00
2:33 PM,73.4,51.4,46,29.98,10.0,North,11.5,20.7,N/A,,Clear,10,2013-07-23 19:33:00
2:52 PM,73.9,51.1,45,29.98,10.0,North,10.4,17.3,N/A,,Clear,360,2013-07-23 19:52:00
3:12 PM,71.4,51.1,49,29.99,10.0,NNE,8.1,19.6,N/A,,Clear,20,2013-07-23 20:12:00
3:33 PM,72.0,51.1,48,29.98,10.0,NNE,9.2,-,N/A,,Clear,30,2013-07-23 20:33:00
3:52 PM,73.6,52.9,48,29.98,10.0,NNW,8.1,-,N/A,,Clear,340,2013-07-23 20:52:00
4:12 PM,73.6,52.3,47,29.98,10.0,North,10.4,-,N/A,,Clear,10,2013-07-23 21:12:00
4:33 PM,73.6,53.1,49,29.98,10.0,NE,9.2,-,N/A,,Clear,50,2013-07-23 21:33:00
4:52 PM,73.4,53.2,49,29.98,10.0,NE,11.5,16.1,N/A,,Clear,40,2013-07-23 21:52:00
5:13 PM,72.7,52.3,49,29.98,10.0,ENE,8.1,-,N/A,,Clear,60,2013-07-23 22:13:00
5:32 PM,72.7,52.7,49,29.98,10.0,NE,11.5,-,N/A,,Clear,40,2013-07-23 22:32:00
5:53 PM,72.3,52.9,50,29.98,10.0,NNE,10.4,-,N/A,,Clear,20,2013-07-23 22:53:00
6:13 PM,72.0,52.7,51,29.98,10.0,NE,10.4,-,N/A,,Clear,40,2013-07-23 23:13:00
6:32 PM,71.6,52.7,51,29.98,10.0,NNE,10.4,-,N/A,,Clear,30,2013-07-23 23:32:00
6:52 PM,71.1,53.1,53,29.98,10.0,NE,9.2,-,N/A,,Clear,40,2013-07-23 23:52:00
7:13 PM,70.2,52.9,54,29.99,10.0,NE,8.1,-,N/A,,Clear,40,2013-07-24 00:13:00
7:32 PM,69.4,53.1,56,29.99,10.0,NE,6.9,-,N/A,,Clear,40,2013-07-24 00:32:00
7:52 PM,68.4,53.1,58,30.00,10.0,NE,8.1,-,N/A,,Clear,40,2013-07-24 00:52:00
8:12 PM,67.3,53.8,62,30.01,10.0,North,4.6,-,N/A,,Clear,10,2013-07-24 01:12:00
8:33 PM,66.0,54.0,65,30.01,10.0,North,4.6,-,N/A,,Clear,10,2013-07-24 01:33:00
8:52 PM,64.2,54.1,70,30.01,10.0,NNE,3.5,-,N/A,,Clear,20,2013-07-24 01:52:00
9:12 PM,63.0,54.5,74,30.01,10.0,NNE,4.6,-,N/A,,Clear,20,2013-07-24 02:12:00
9:32 PM,62.6,54.1,74,30.02,10.0,NNE,3.5,-,N/A,,Clear,20,2013-07-24 02:32:00
9:52 PM,62.2,54.0,74,30.03,10.0,NNE,4.6,-,N/A,,Clear,30,2013-07-24 02:52:00
10:12 PM,62.2,54.0,74,30.02,10.0,NNE,3.5,-,N/A,,Clear,30,2013-07-24 03:12:00
10:32 PM,62.6,53.6,72,30.03,10.0,Calm,Calm,-,N/A,,Clear,0,2013-07-24 03:32:00
10:52 PM,61.9,53.6,74,30.03,10.0,Calm,Calm,-,N/A,,Clear,0,2013-07-24 03:52:00
11:12 PM,61.7,53.6,75,30.04,10.0,Calm,Calm,-,N/A,,Clear,0,2013-07-24 04:12:00
11:32 PM,61.7,53.2,74,30.04,10.0,Calm,Calm,-,N/A,,Clear,0,2013-07-24 04:32:00
11:52 PM,60.4,53.1,77,30.04,10.0,Calm,Calm,-,N/A,,Clear,0,2013-07-24 04:52:00